Terminal Aerodrome Forecast
Issued by NWS

Home | Current Version | Previous Version | Text Only | Print | Product List | Glossary On
Versions: 1 2 3 4 5 6 7 8 9 10 11 12 13 14 15 16 17 18 19 20 21 22 23 24
947
FTUS41 KBUF 291215 AAA
TAFJHW
TAF AMD
KJHW 291215Z 2912/3012 31006KT 1SM BR OVC002
     FM291600 33006KT P6SM BKN025
     FM292200 04006KT P6SM BKN025
     FM300600 09008KT P6SM VCSH OVC020
      AMD LTD TO CLD VIS AND WIND=

USA.gov is the U.S. government's official web portal to all federal, state and local government web resources and services.